createdAt,value
2019-03-20T00:00:26.629Z,18.10
2019-03-20T00:02:58.898Z,18.93
2019-03-20T00:05:30.802Z,18.93
2019-03-20T00:08:02.742Z,17.73
2019-03-20T00:10:34.717Z,18.63
2019-03-20T00:13:06.719Z,17.37
2019-03-20T00:15:39.678Z,17.30
2019-03-20T00:18:12.201Z,18.07
2019-03-20T00:20:44.178Z,17.83
2019-03-20T00:23:16.162Z,16.17
2019-03-20T00:25:48.092Z,16.37
2019-03-20T00:28:20.116Z,16.00
2019-03-20T00:30:52.022Z,15.73
2019-03-20T00:33:23.970Z,17.83
2019-03-20T00:35:55.900Z,16.70
2019-03-20T00:38:27.834Z,16.23
2019-03-20T00:40:59.743Z,15.90
2019-03-20T00:43:31.562Z,16.80
2019-03-20T00:46:03.410Z,16.63
2019-03-20T00:48:35.586Z,16.43
2019-03-20T00:51:07.460Z,15.40
2019-03-20T00:53:39.384Z,15.70
2019-03-20T00:56:11.309Z,16.57
2019-03-20T00:58:43.163Z,16.17
2019-03-20T01:01:15.160Z,15.70
2019-03-20T01:03:47.222Z,16.93
2019-03-20T01:06:20.074Z,16.27
2019-03-20T01:08:51.881Z,17.37
2019-03-20T01:11:23.865Z,17.77
2019-03-20T01:13:55.819Z,18.30
2019-03-20T01:16:27.694Z,18.00
2019-03-20T01:18:59.778Z,22.00
2019-03-20T01:21:31.646Z,23.23
2019-03-20T01:24:03.505Z,21.90
2019-03-20T01:26:35.352Z,21.43
2019-03-20T01:29:07.228Z,20.70
2019-03-20T01:31:39.146Z,24.40
2019-03-20T01:34:11.298Z,22.47
2019-03-20T01:36:43.174Z,23.03
2019-03-20T01:39:14.999Z,24.13
2019-03-20T01:41:46.856Z,24.70
2019-03-20T01:44:18.678Z,27.00
2019-03-20T01:46:50.554Z,25.40
2019-03-20T01:49:22.536Z,23.40
2019-03-20T01:51:54.418Z,24.13
2019-03-20T01:54:27.851Z,25.67
2019-03-20T01:56:59.659Z,26.27
2019-03-20T01:59:31.505Z,24.73
2019-03-20T02:02:03.462Z,22.70
2019-03-20T02:04:35.316Z,22.80
2019-03-20T02:07:07.163Z,22.87
2019-03-20T02:09:39.032Z,22.23
2019-03-20T02:12:10.858Z,20.43
2019-03-20T02:14:42.654Z,21.87
2019-03-20T02:17:14.498Z,18.43
2019-03-20T02:19:47.505Z,20.23
2019-03-20T02:22:19.436Z,20.10
2019-03-20T02:24:51.346Z,18.27
2019-03-20T02:27:23.213Z,17.87
2019-03-20T02:29:55.745Z,18.30
2019-03-20T02:32:27.564Z,18.37
2019-03-20T02:34:59.618Z,18.13
2019-03-20T02:37:31.573Z,17.57
2019-03-20T02:40:03.443Z,16.80
2019-03-20T02:42:35.333Z,17.10
2019-03-20T02:45:10.158Z,17.00
2019-03-20T02:47:41.989Z,15.57
2019-03-20T02:50:14.162Z,16.40
2019-03-20T02:52:46.013Z,16.37
2019-03-20T02:55:18.003Z,15.93
2019-03-20T02:57:49.877Z,16.77
2019-03-20T03:00:22.057Z,16.57
2019-03-20T03:02:53.949Z,16.63
2019-03-20T03:05:25.755Z,15.27
2019-03-20T03:07:57.709Z,15.43
2019-03-20T03:10:29.545Z,16.30
2019-03-20T03:13:01.379Z,15.97
2019-03-20T03:15:33.249Z,15.40
2019-03-20T03:18:05.102Z,15.17
2019-03-20T03:20:37.170Z,15.67
2019-03-20T03:23:08.989Z,15.97
2019-03-20T03:25:42.191Z,16.30
2019-03-20T03:28:14.026Z,15.97
2019-03-20T03:30:46.048Z,16.23
2019-03-20T03:33:17.938Z,15.27
2019-03-20T03:35:49.803Z,16.20
2019-03-20T03:38:21.859Z,16.43
2019-03-20T03:40:53.720Z,17.10
2019-03-20T03:43:25.539Z,15.60
2019-03-20T03:45:57.388Z,16.23
2019-03-20T03:48:29.361Z,18.30
2019-03-20T03:51:01.510Z,17.07
2019-03-20T03:53:33.305Z,20.00
2019-03-20T03:56:05.435Z,20.53
2019-03-20T03:58:37.396Z,20.20
2019-03-20T04:01:09.288Z,21.03
2019-03-20T04:03:41.197Z,18.93
2019-03-20T04:06:13.314Z,19.67
2019-03-20T04:08:45.152Z,19.53
2019-03-20T04:11:17.044Z,18.03
2019-03-20T04:13:49.850Z,18.03
2019-03-20T04:16:21.699Z,17.10
2019-03-20T04:18:53.608Z,17.83
2019-03-20T04:21:25.544Z,17.00
2019-03-20T04:23:57.406Z,16.50
2019-03-20T04:26:29.306Z,17.00
2019-03-20T04:29:01.214Z,18.67
2019-03-20T04:31:33.273Z,16.00
2019-03-20T04:34:05.146Z,16.90
2019-03-20T04:36:47.234Z,17.57
2019-03-20T04:39:10.867Z,16.47
2019-03-20T04:41:42.729Z,17.33
2019-03-20T04:44:14.712Z,18.83
2019-03-20T04:46:46.570Z,19.47
2019-03-20T04:49:18.386Z,18.40
2019-03-20T04:51:50.291Z,19.43
2019-03-20T04:54:22.126Z,18.83
2019-03-20T04:56:53.958Z,19.70
2019-03-20T04:59:25.807Z,20.23
2019-03-20T05:01:57.704Z,19.43
2019-03-20T05:04:29.578Z,19.30
2019-03-20T05:07:01.712Z,19.87
2019-03-20T05:09:33.558Z,19.83
2019-03-20T05:12:05.801Z,19.70
2019-03-20T05:14:37.719Z,19.30
2019-03-20T05:17:09.554Z,21.00
2019-03-20T05:19:41.539Z,20.67
2019-03-20T05:22:14.720Z,19.40
2019-03-20T05:24:46.570Z,19.83
2019-03-20T05:27:18.421Z,21.47
2019-03-20T05:29:50.302Z,20.63
2019-03-20T05:32:22.297Z,21.07
2019-03-20T05:34:54.148Z,20.33
2019-03-20T05:37:27.127Z,16.37
2019-03-20T05:39:59.135Z,19.93
2019-03-20T05:42:31.002Z,19.13
2019-03-20T05:45:02.888Z,19.50
2019-03-20T05:47:35.081Z,18.93
2019-03-20T05:50:07.990Z,19.57
2019-03-20T05:52:40.161Z,17.47
2019-03-20T05:55:14.531Z,18.37
2019-03-20T05:57:46.363Z,17.63
2019-03-20T06:00:18.817Z,17.43
2019-03-20T06:02:50.608Z,16.50
2019-03-20T06:05:22.448Z,17.87
2019-03-20T06:07:54.565Z,16.67
2019-03-20T06:10:26.402Z,16.93
2019-03-20T06:12:58.238Z,17.37
2019-03-20T06:15:30.076Z,16.63
2019-03-20T06:18:01.929Z,17.67
2019-03-20T06:20:34.066Z,17.53
2019-03-20T06:23:06.234Z,18.73
2019-03-20T06:25:38.044Z,15.17
2019-03-20T06:28:09.942Z,15.40
2019-03-20T06:30:41.793Z,17.30
2019-03-20T06:33:13.683Z,17.27
2019-03-20T06:35:45.577Z,14.40
2019-03-20T06:38:17.430Z,14.97
2019-03-20T06:40:49.267Z,16.47
2019-03-20T06:43:21.127Z,14.20
2019-03-20T06:45:52.967Z,15.60
2019-03-20T06:48:24.918Z,16.00
2019-03-20T06:50:57.882Z,16.50
2019-03-20T06:53:30.169Z,15.87
2019-03-20T06:56:02.037Z,15.73
2019-03-20T06:58:33.888Z,15.37
2019-03-20T07:01:14.189Z,14.43
2019-03-20T07:04:30.112Z,13.83
2019-03-20T07:07:20.951Z,14.00
2019-03-20T07:10:44.071Z,15.53
2019-03-20T07:13:15.923Z,15.67
2019-03-20T07:15:47.800Z,13.83
2019-03-20T07:18:20.602Z,14.53
2019-03-20T07:20:52.490Z,15.30
2019-03-20T07:23:24.280Z,10.87
2019-03-20T07:25:56.324Z,13.23
2019-03-20T07:28:28.169Z,15.43
2019-03-20T07:31:00.014Z,16.13
2019-03-20T07:33:32.234Z,16.70
2019-03-20T07:36:04.326Z,14.27
2019-03-20T07:38:36.164Z,17.70
2019-03-20T07:41:08.332Z,14.03
2019-03-20T07:43:40.188Z,16.57
2019-03-20T07:46:12.053Z,13.57
2019-03-20T07:48:44.721Z,13.57
2019-03-20T07:51:16.603Z,16.53
2019-03-20T07:53:48.428Z,12.13
2019-03-20T07:56:20.319Z,14.93
2019-03-20T07:58:52.194Z,16.53
2019-03-20T08:01:24.112Z,15.43
2019-03-20T08:03:57.235Z,13.93
2019-03-20T08:06:29.074Z,13.30
2019-03-20T08:09:00.911Z,17.53
2019-03-20T08:11:34.108Z,13.97
2019-03-20T08:14:06.063Z,14.57
2019-03-20T08:16:37.917Z,13.53
2019-03-20T08:19:09.810Z,12.07
2019-03-20T08:21:41.697Z,13.23
2019-03-20T08:24:13.535Z,12.00
2019-03-20T08:26:45.670Z,11.27
2019-03-20T08:29:17.770Z,11.33
2019-03-20T08:31:49.612Z,8.43
2019-03-20T08:34:21.551Z,10.60
2019-03-20T08:36:53.454Z,9.27
2019-03-20T08:39:25.368Z,7.40
2019-03-20T08:41:57.538Z,6.00
2019-03-20T08:44:29.473Z,6.00
2019-03-20T08:47:01.320Z,7.00
2019-03-20T08:49:33.296Z,6.10
2019-03-20T08:52:05.133Z,5.47
2019-03-20T08:54:37.035Z,5.07
2019-03-20T08:57:09.166Z,4.10
2019-03-20T08:59:41.071Z,4.30
2019-03-20T09:02:12.921Z,4.50
2019-03-20T09:04:44.743Z,6.50
2019-03-20T09:07:16.633Z,5.17
2019-03-20T09:09:50.792Z,5.17
2019-03-20T09:12:22.187Z,6.17
2019-03-20T09:14:54.044Z,4.83
2019-03-20T09:17:25.905Z,5.43
2019-03-20T09:19:57.800Z,5.00
2019-03-20T09:22:29.696Z,5.57
2019-03-20T09:25:01.575Z,6.03
2019-03-20T09:27:33.735Z,6.20
2019-03-20T09:30:06.702Z,4.97
2019-03-20T09:32:38.634Z,5.83
2019-03-20T09:35:10.893Z,5.73
2019-03-20T09:37:51.299Z,6.43
2019-03-20T09:40:18.012Z,7.53
2019-03-20T09:42:49.886Z,7.23
2019-03-20T09:45:22.125Z,6.40
2019-03-20T09:47:53.993Z,6.80
2019-03-20T09:50:25.864Z,7.67
2019-03-20T09:52:57.779Z,8.30
2019-03-20T09:55:29.671Z,7.47
2019-03-20T09:58:11.141Z,8.80
2019-03-20T10:00:35.207Z,6.90
2019-03-20T10:03:07.089Z,8.10
2019-03-20T10:05:39.003Z,7.47
2019-03-20T10:08:10.838Z,8.73
2019-03-20T10:10:42.746Z,8.60
2019-03-20T10:13:15.063Z,9.33
2019-03-20T10:15:46.934Z,9.93
2019-03-20T10:18:18.859Z,8.43
2019-03-20T10:20:50.805Z,8.37
2019-03-20T10:23:22.693Z,8.77
2019-03-20T10:25:54.586Z,7.67
2019-03-20T10:28:26.754Z,9.10
2019-03-20T10:30:58.609Z,9.90
2019-03-20T10:33:30.474Z,8.37
2019-03-20T10:36:02.378Z,6.77
2019-03-20T10:38:34.249Z,8.17
2019-03-20T10:41:06.103Z,6.67
2019-03-20T10:43:38.269Z,6.23
2019-03-20T10:46:10.149Z,6.10
2019-03-20T10:48:42.040Z,6.13
2019-03-20T10:51:13.933Z,5.87
2019-03-20T10:53:45.762Z,6.50
2019-03-20T10:56:17.615Z,5.17
2019-03-20T10:58:51.329Z,5.37
2019-03-20T11:01:24.291Z,5.23
2019-03-20T11:03:56.333Z,5.80
2019-03-20T11:06:28.299Z,4.43
2019-03-20T11:09:00.156Z,3.77
2019-03-20T11:11:32.088Z,3.40
2019-03-20T11:14:04.216Z,3.73
2019-03-20T11:16:36.118Z,3.20
2019-03-20T11:19:07.966Z,4.40
2019-03-20T11:21:39.825Z,4.60
2019-03-20T11:24:11.795Z,4.47
2019-03-20T11:26:43.825Z,4.90
2019-03-20T11:29:21.316Z,4.83
2019-03-20T11:31:49.264Z,4.33
2019-03-20T11:34:21.076Z,3.47
2019-03-20T11:36:53.081Z,4.90
2019-03-20T11:39:29.574Z,3.33
2019-03-20T11:41:58.515Z,3.77
2019-03-20T11:44:30.618Z,3.70
2019-03-20T11:47:02.622Z,3.70
2019-03-20T11:49:34.501Z,3.87
2019-03-20T11:52:06.581Z,3.83
2019-03-20T11:54:38.484Z,3.23
2019-03-20T11:57:10.356Z,4.67
2019-03-20T11:59:42.642Z,4.53
2019-03-20T12:02:14.513Z,6.03
2019-03-20T12:04:46.399Z,4.27
2019-03-20T12:07:19.234Z,5.03
2019-03-20T12:09:51.128Z,5.47
2019-03-20T12:12:23.003Z,6.40
2019-03-20T12:14:55.299Z,6.63
2019-03-20T12:17:27.175Z,7.20
2019-03-20T12:19:59.271Z,6.13
2019-03-20T12:22:31.151Z,5.43
2019-03-20T12:25:03.028Z,6.33
2019-03-20T12:27:34.875Z,5.93
2019-03-20T12:30:10.444Z,6.30
2019-03-20T12:32:42.374Z,5.50
2019-03-20T12:35:15.712Z,7.50
2019-03-20T12:37:48.234Z,6.43
2019-03-20T12:40:23.904Z,6.23
2019-03-20T12:42:56.092Z,7.53
2019-03-20T12:45:30.775Z,6.57
2019-03-20T12:48:02.711Z,5.87
2019-03-20T12:50:34.587Z,7.77
2019-03-20T12:53:06.734Z,6.77
2019-03-20T12:55:38.704Z,6.67
2019-03-20T12:58:10.639Z,5.73
2019-03-20T13:00:42.899Z,7.37
2019-03-20T13:03:14.838Z,7.37
2019-03-20T13:05:46.665Z,5.87
2019-03-20T13:08:18.559Z,7.28
2019-03-20T13:10:50.483Z,8.18
2019-03-20T13:13:22.450Z,7.90
2019-03-20T13:15:54.337Z,7.15
2019-03-20T13:18:26.167Z,7.55
2019-03-20T13:20:58.077Z,6.80
2019-03-20T13:23:32.634Z,6.10
2019-03-20T13:26:04.924Z,5.05
2019-03-20T13:28:36.855Z,5.97
2019-03-20T13:31:17.157Z,5.33
2019-03-20T13:33:49.393Z,5.70
2019-03-20T13:36:21.670Z,4.87
2019-03-20T13:38:53.734Z,5.30
2019-03-20T13:41:25.619Z,5.00
2019-03-20T13:43:57.445Z,4.75
2019-03-20T13:46:29.621Z,5.55
2019-03-20T13:49:01.435Z,6.58
2019-03-20T13:51:33.446Z,6.70
2019-03-20T13:54:05.343Z,6.40
2019-03-20T13:56:37.280Z,7.22
2019-03-20T13:59:09.190Z,6.78
2019-03-20T14:01:41.268Z,7.03
2019-03-20T14:04:13.327Z,5.20
2019-03-20T14:06:45.363Z,7.20
2019-03-20T14:09:17.252Z,6.85
2019-03-20T14:11:49.092Z,6.90
2019-03-20T14:14:20.898Z,7.92
2019-03-20T14:16:52.964Z,8.08
2019-03-20T14:19:24.764Z,6.85
2019-03-20T14:21:56.542Z,7.42
2019-03-20T14:24:28.304Z,6.87
2019-03-20T14:27:00.112Z,7.33
2019-03-20T14:29:31.902Z,7.42
2019-03-20T14:32:03.902Z,6.42
2019-03-20T14:34:35.679Z,5.85
2019-03-20T14:37:07.627Z,5.80
2019-03-20T14:39:39.601Z,6.70
2019-03-20T14:42:11.423Z,5.37
2019-03-20T14:44:43.259Z,6.72
2019-03-20T14:47:15.365Z,6.47
2019-03-20T14:49:47.147Z,5.20
2019-03-20T14:52:18.993Z,6.55
2019-03-20T14:54:50.867Z,6.30
2019-03-20T14:57:22.642Z,6.67
2019-03-20T14:59:54.518Z,6.15
2019-03-20T15:02:26.625Z,4.97
2019-03-20T15:04:58.603Z,6.55
2019-03-20T15:07:30.451Z,7.25
2019-03-20T15:10:02.303Z,7.28
2019-03-20T15:12:34.209Z,7.22
2019-03-20T15:15:11.153Z,6.60
2019-03-20T15:17:43.380Z,7.62
2019-03-20T15:20:15.298Z,7.15
2019-03-20T15:22:47.341Z,7.70
2019-03-20T15:25:19.448Z,6.92
2019-03-20T15:27:51.328Z,7.20
2019-03-20T15:30:23.961Z,8.58
2019-03-20T15:32:56.045Z,9.10
2019-03-20T15:35:27.942Z,6.75
2019-03-20T15:37:59.754Z,9.58
2019-03-20T15:40:31.872Z,8.18
2019-03-20T15:43:03.826Z,7.70
2019-03-20T15:45:35.724Z,7.92
2019-03-20T15:48:07.810Z,7.50
2019-03-20T15:50:39.626Z,6.78
2019-03-20T15:53:11.571Z,9.13
2019-03-20T15:55:43.742Z,7.95
2019-03-20T15:58:15.675Z,7.58
2019-03-20T16:00:47.551Z,8.30
2019-03-20T16:03:20.397Z,8.57
2019-03-20T16:05:52.359Z,8.47
2019-03-20T16:08:24.634Z,10.00
2019-03-20T16:11:05.998Z,11.90
2019-03-20T16:13:30.229Z,10.83
2019-03-20T16:16:02.070Z,10.73
2019-03-20T16:18:34.310Z,11.10
2019-03-20T16:21:06.168Z,13.13
2019-03-20T16:23:38.177Z,10.03
2019-03-20T16:26:10.166Z,12.20
2019-03-20T16:28:42.158Z,10.83
2019-03-20T16:31:14.170Z,9.37
2019-03-20T16:33:47.273Z,9.87
2019-03-20T16:36:19.210Z,8.97
2019-03-20T16:38:52.206Z,10.17
2019-03-20T16:41:24.102Z,8.73
2019-03-20T16:43:55.877Z,10.67
2019-03-20T16:46:27.779Z,17.63
2019-03-20T16:48:59.905Z,13.97
2019-03-20T16:51:31.723Z,11.57
2019-03-20T16:54:04.545Z,12.47
2019-03-20T16:56:37.445Z,13.03
2019-03-20T16:59:09.431Z,13.67
2019-03-20T17:01:41.609Z,12.93
2019-03-20T17:04:13.988Z,12.90
2019-03-20T17:06:45.825Z,13.10
2019-03-20T17:09:17.771Z,14.37
2019-03-20T17:11:49.587Z,15.53
2019-03-20T17:14:21.459Z,13.77
2019-03-20T17:16:53.370Z,14.07
2019-03-20T17:19:25.876Z,14.10
2019-03-20T17:21:57.844Z,13.87
2019-03-20T17:24:29.974Z,12.63
2019-03-20T17:27:02.178Z,9.13
2019-03-20T17:29:34.171Z,10.83
2019-03-20T17:32:06.195Z,12.53
2019-03-20T17:34:38.230Z,10.10
2019-03-20T17:37:10.087Z,10.10
2019-03-20T17:39:41.954Z,10.97
2019-03-20T17:42:14.218Z,11.23
2019-03-20T17:44:46.240Z,12.80
2019-03-20T17:47:18.185Z,11.83
2019-03-20T17:49:50.441Z,14.43
2019-03-20T17:52:22.347Z,14.70
2019-03-20T17:54:55.323Z,11.97
2019-03-20T17:57:27.218Z,14.17
2019-03-20T17:59:59.068Z,16.97
2019-03-20T18:02:30.910Z,23.17
2019-03-20T18:05:02.995Z,21.43
2019-03-20T18:07:34.882Z,21.07
2019-03-20T18:10:07.207Z,19.23
2019-03-20T18:12:39.160Z,12.77
2019-03-20T18:15:12.646Z,12.43
2019-03-20T18:17:44.480Z,12.13
2019-03-20T18:20:16.616Z,10.07
2019-03-20T18:22:48.629Z,10.67
2019-03-20T18:25:20.584Z,10.50
2019-03-20T18:27:53.814Z,10.60
2019-03-20T18:30:25.979Z,11.53
2019-03-20T18:32:57.844Z,10.73
2019-03-20T18:35:30.679Z,10.43
2019-03-20T18:38:02.567Z,11.60
2019-03-20T18:40:34.475Z,10.67
2019-03-20T18:43:06.476Z,11.37
2019-03-20T18:45:38.602Z,11.97
2019-03-20T18:48:10.513Z,11.17
2019-03-20T18:50:42.551Z,11.37
2019-03-20T18:53:14.675Z,11.07
2019-03-20T18:55:46.728Z,13.50
2019-03-20T18:58:18.595Z,13.33
2019-03-20T19:00:50.810Z,12.17
2019-03-20T19:03:22.884Z,12.87
2019-03-20T19:06:09.067Z,15.73
2019-03-20T19:08:41.174Z,14.57
2019-03-20T19:11:13.238Z,19.50
2019-03-20T19:13:45.435Z,21.90
2019-03-20T19:16:17.816Z,18.37
2019-03-20T19:18:51.395Z,17.63
2019-03-20T19:21:23.720Z,18.63
2019-03-20T19:23:55.572Z,18.73
2019-03-20T19:26:27.479Z,16.37
2019-03-20T19:28:59.404Z,18.93
2019-03-20T19:31:31.323Z,15.60
2019-03-20T19:34:04.596Z,15.73
2019-03-20T19:36:37.418Z,17.93
2019-03-20T19:39:11.364Z,14.63
2019-03-20T19:41:43.271Z,16.13
2019-03-20T19:44:15.400Z,15.10
2019-03-20T19:46:47.349Z,16.80
2019-03-20T19:49:19.235Z,17.77
2019-03-20T19:51:51.525Z,17.00
2019-03-20T19:54:23.407Z,15.67
2019-03-20T19:56:55.426Z,18.00
2019-03-20T19:59:27.498Z,18.87
2019-03-20T20:01:59.571Z,14.93
2019-03-20T20:04:31.576Z,14.30
2019-03-20T20:07:04.002Z,13.93
2019-03-20T20:09:35.905Z,12.27
2019-03-20T20:12:07.896Z,14.10
2019-03-20T20:14:39.765Z,11.83
2019-03-20T20:17:11.725Z,15.90
2019-03-20T20:19:43.517Z,15.60
2019-03-20T20:22:15.533Z,15.00
2019-03-20T20:24:47.408Z,14.73
2019-03-20T20:27:19.301Z,14.27
2019-03-20T20:29:52.313Z,13.37
2019-03-20T20:32:24.497Z,13.50
2019-03-20T20:34:56.400Z,12.93
2019-03-20T20:37:29.179Z,14.33
2019-03-20T20:40:01.115Z,14.73
2019-03-20T20:42:42.526Z,13.80
2019-03-20T20:45:08.165Z,15.33
2019-03-20T20:47:41.001Z,14.87
2019-03-20T20:50:13.875Z,15.30
2019-03-20T20:52:46.168Z,13.90
2019-03-20T20:55:18.112Z,12.70
2019-03-20T20:57:50.011Z,12.00
2019-03-20T21:00:22.270Z,12.47
2019-03-20T21:02:54.441Z,10.90
2019-03-20T21:05:26.300Z,11.10
2019-03-20T21:07:58.479Z,9.67
2019-03-20T21:10:30.312Z,11.00
2019-03-20T21:13:02.132Z,10.90
2019-03-20T21:15:50.042Z,10.83
2019-03-20T21:19:33.600Z,11.57
2019-03-20T21:23:02.774Z,13.80
2019-03-20T21:25:35.533Z,12.87
2019-03-20T21:28:59.339Z,12.63
2019-03-20T21:32:02.453Z,8.20
2019-03-20T21:35:41.867Z,12.80
2019-03-20T21:38:12.306Z,12.03
2019-03-20T21:41:56.325Z,12.20
2019-03-20T21:45:26.059Z,12.40
2019-03-20T21:47:58.756Z,9.57
2019-03-20T21:51:11.003Z,10.87
2019-03-20T21:54:43.915Z,12.73
2019-03-20T21:57:52.131Z,11.47
2019-03-20T22:01:21.718Z,10.67
2019-03-20T22:03:54.357Z,11.03
2019-03-20T22:07:23.751Z,11.30
2019-03-20T22:10:53.089Z,8.63
2019-03-20T22:13:58.067Z,9.53
2019-03-20T22:17:50.711Z,10.27
2019-03-20T22:20:53.537Z,8.93
2019-03-20T22:24:28.316Z,9.47
2019-03-20T22:28:33.216Z,9.53
2019-03-20T22:31:05.811Z,9.70
2019-03-20T22:34:31.456Z,7.57
2019-03-20T22:37:04.161Z,8.93
2019-03-20T22:40:56.001Z,8.33
2019-03-20T22:43:42.896Z,7.67
2019-03-20T22:47:34.936Z,7.73
2019-03-20T22:50:22.669Z,7.63
2019-03-20T22:53:56.408Z,7.67
2019-03-20T22:57:07.725Z,7.60
2019-03-20T22:59:40.363Z,7.73
2019-03-20T23:02:32.144Z,6.93
2019-03-20T23:05:04.949Z,8.57
2019-03-20T23:07:37.623Z,8.50
2019-03-20T23:10:13.885Z,7.23
2019-03-20T23:12:48.105Z,6.10
2019-03-20T23:15:21.130Z,7.57
2019-03-20T23:17:53.862Z,8.70
2019-03-20T23:20:27.118Z,6.27
2019-03-20T23:22:59.713Z,6.77
2019-03-20T23:25:32.301Z,5.70
2019-03-20T23:28:04.968Z,6.23
2019-03-20T23:30:37.590Z,7.90
2019-03-20T23:33:10.234Z,8.00
2019-03-20T23:35:42.904Z,6.43
2019-03-20T23:38:15.522Z,7.70
2019-03-20T23:40:48.190Z,7.10
2019-03-20T23:43:20.990Z,7.20
2019-03-20T23:45:53.572Z,7.60
2019-03-20T23:48:38.441Z,7.17
2019-03-20T23:51:17.169Z,5.40
2019-03-20T23:53:53.382Z,7.20
2019-03-20T23:56:27.700Z,6.80
2019-03-20T23:59:00.365Z,6.60
